createdAt,value
2019-02-17T00:01:13.321Z,13.39
2019-02-17T00:06:19.378Z,13.22
2019-02-17T00:11:25.385Z,13.57
2019-02-17T00:16:31.431Z,9.03
2019-02-17T00:21:37.526Z,13.88
2019-02-17T00:26:43.544Z,9.04
2019-02-17T00:31:49.636Z,9.34
2019-02-17T00:36:55.681Z,8.94
2019-02-17T00:42:01.741Z,9.29
2019-02-17T00:47:07.767Z,9.22
2019-02-17T00:52:13.799Z,9.01
2019-02-17T00:57:19.807Z,9.47
2019-02-17T01:02:25.854Z,9.47
2019-02-17T01:07:31.896Z,9.24
2019-02-17T01:12:37.960Z,9.35
2019-02-17T01:17:43.963Z,14.67
2019-02-17T01:22:49.966Z,9.50
2019-02-17T01:27:55.985Z,9.47
2019-02-17T01:33:01.974Z,9.40
2019-02-17T01:38:07.993Z,9.44
2019-02-17T01:43:14.063Z,9.38
2019-02-17T01:48:20.081Z,9.37
2019-02-17T01:53:26.128Z,9.52
2019-02-17T01:58:32.142Z,14.54
2019-02-17T02:03:38.127Z,10.33
2019-02-17T02:08:44.181Z,9.73
2019-02-17T02:13:50.191Z,9.92
2019-02-17T02:18:56.210Z,9.68
2019-02-17T02:24:02.241Z,14.25
2019-02-17T02:29:08.229Z,9.60
2019-02-17T02:34:14.239Z,9.67
2019-02-17T02:39:20.231Z,9.56
2019-02-17T02:44:26.256Z,9.65
2019-02-17T02:49:32.230Z,14.54
2019-02-17T02:54:38.229Z,14.52
2019-02-17T02:59:52.157Z,14.74
2019-02-17T03:04:49.741Z,9.41
2019-02-17T03:09:55.732Z,14.34
2019-02-17T03:15:01.747Z,10.13
2019-02-17T03:20:07.780Z,9.84
2019-02-17T03:25:13.755Z,9.22
2019-02-17T03:30:19.735Z,10.30
2019-02-17T03:35:25.770Z,11.02
2019-02-17T03:40:31.779Z,13.47
2019-02-17T03:45:37.795Z,9.63
2019-02-17T03:50:43.820Z,9.21
2019-02-17T03:55:49.822Z,9.72
2019-02-17T04:00:55.857Z,9.90
2019-02-17T04:06:01.882Z,9.59
2019-02-17T04:11:07.897Z,9.33
2019-02-17T04:16:13.939Z,9.18
2019-02-17T04:21:19.966Z,9.89
2019-02-17T04:26:25.955Z,9.56
2019-02-17T04:31:31.990Z,10.09
2019-02-17T04:36:38.012Z,9.98
2019-02-17T04:41:44.047Z,9.48
2019-02-17T04:46:50.037Z,9.84
2019-02-17T04:51:56.065Z,9.77
2019-02-17T04:57:02.074Z,14.40
2019-02-17T05:02:08.066Z,9.92
2019-02-17T05:07:14.089Z,9.87
2019-02-17T05:12:20.085Z,14.54
2019-02-17T05:17:26.065Z,9.82
2019-02-17T05:22:32.103Z,9.91
2019-02-17T05:27:38.120Z,14.75
2019-02-17T05:32:45.533Z,11.06
2019-02-17T05:37:51.585Z,12.33
2019-02-17T05:42:57.595Z,11.11
2019-02-17T05:48:03.796Z,12.45
2019-02-17T05:53:09.869Z,13.01
2019-02-17T05:58:15.900Z,16.74
2019-02-17T06:03:21.897Z,11.93
2019-02-17T06:08:27.882Z,12.61
2019-02-17T06:13:34.027Z,13.05
2019-02-17T06:18:40.029Z,12.03
2019-02-17T06:23:46.103Z,11.75
2019-02-17T06:28:52.116Z,17.25
2019-02-17T06:33:58.146Z,16.70
2019-02-17T06:39:04.266Z,11.59
2019-02-17T06:44:10.324Z,11.79
2019-02-17T06:49:16.319Z,18.26
2019-02-17T06:54:22.309Z,11.57
2019-02-17T06:59:28.351Z,12.38
2019-02-17T07:04:34.428Z,13.11
2019-02-17T07:09:40.434Z,11.94
2019-02-17T07:14:46.603Z,12.09
2019-02-17T07:19:52.777Z,11.39
2019-02-17T07:24:59.075Z,11.47
2019-02-17T07:30:05.220Z,11.34
2019-02-17T07:35:11.295Z,11.14
2019-02-17T07:40:17.295Z,11.05
2019-02-17T07:45:23.415Z,11.17
2019-02-17T07:50:29.424Z,11.36
2019-02-17T07:55:35.493Z,11.26
2019-02-17T08:00:41.571Z,11.01
2019-02-17T08:05:47.566Z,11.47
2019-02-17T08:11:03.453Z,11.73
2019-02-17T08:15:59.228Z,11.60
2019-02-17T08:21:05.271Z,16.53
2019-02-17T08:26:11.278Z,11.96
2019-02-17T08:31:17.298Z,17.43
2019-02-17T08:36:23.345Z,11.48
2019-02-17T08:41:29.433Z,11.27
2019-02-17T08:46:35.868Z,11.05
2019-02-17T08:51:41.912Z,11.19
2019-02-17T08:56:48.920Z,10.83
2019-02-17T09:02:05.356Z,11.02
2019-02-17T09:07:00.529Z,16.27
2019-02-17T09:12:06.545Z,11.42
2019-02-17T09:17:12.995Z,11.24
2019-02-17T09:22:19.061Z,11.47
2019-02-17T09:27:25.104Z,10.89
2019-02-17T09:32:31.096Z,16.34
2019-02-17T09:37:37.212Z,10.87
2019-02-17T09:42:43.476Z,10.50
2019-02-17T09:47:49.587Z,10.37
2019-02-17T09:52:55.575Z,16.05
2019-02-17T09:58:01.619Z,15.03
2019-02-17T10:03:07.808Z,10.70
2019-02-17T10:08:14.068Z,10.04
2019-02-17T10:13:20.167Z,10.21
2019-02-17T10:18:26.217Z,14.82
2019-02-17T10:23:33.412Z,10.21
2019-02-17T10:28:42.346Z,9.79
2019-02-17T10:33:45.094Z,14.36
2019-02-17T10:38:51.458Z,14.34
2019-02-17T10:43:57.487Z,11.35
2019-02-17T10:49:08.653Z,8.84
2019-02-17T10:54:04.703Z,9.67
2019-02-17T10:59:10.867Z,10.26
2019-02-17T11:04:16.933Z,8.48
2019-02-17T11:09:22.978Z,11.92
2019-02-17T11:14:29.252Z,7.93
2019-02-17T11:19:35.260Z,8.07
2019-02-17T11:24:41.294Z,8.14
2019-02-17T11:29:47.295Z,8.42
2019-02-17T11:34:53.307Z,11.09
2019-02-17T11:39:59.336Z,8.07
2019-02-17T11:45:05.360Z,11.66
2019-02-17T11:50:11.393Z,7.79
2019-02-17T11:55:17.480Z,11.19
2019-02-17T12:00:23.797Z,7.42
2019-02-17T12:05:29.869Z,7.21
2019-02-17T12:10:36.104Z,7.33
2019-02-17T12:15:42.036Z,7.68
2019-02-17T12:20:48.061Z,7.24
2019-02-17T12:25:54.092Z,7.21
2019-02-17T12:31:00.160Z,6.84
2019-02-17T12:36:06.181Z,6.94
2019-02-17T12:41:12.292Z,7.30
2019-02-17T12:46:18.319Z,7.30
2019-02-17T12:51:24.322Z,9.20
2019-02-17T12:56:30.437Z,7.66
2019-02-17T13:01:36.478Z,9.42
2019-02-17T13:06:42.521Z,7.49
2019-02-17T13:11:48.741Z,7.65
2019-02-17T13:16:54.579Z,8.09
2019-02-17T13:22:00.693Z,8.00
2019-02-17T13:27:06.812Z,8.97
2019-02-17T13:32:12.852Z,8.31
2019-02-17T13:37:18.942Z,7.13
2019-02-17T13:42:25.068Z,9.21
2019-02-17T13:47:31.114Z,8.01
2019-02-17T13:52:37.234Z,7.40
2019-02-17T13:57:43.297Z,7.98
2019-02-17T14:02:49.273Z,8.03
2019-02-17T14:07:55.366Z,7.63
2019-02-17T14:13:01.434Z,7.78
2019-02-17T14:18:07.588Z,7.64
2019-02-17T14:23:13.664Z,7.28
2019-02-17T14:28:19.699Z,7.89
2019-02-17T14:33:25.686Z,7.75
2019-02-17T14:38:31.863Z,7.72
2019-02-17T14:43:37.891Z,8.59
2019-02-17T14:48:43.913Z,7.83
2019-02-17T14:53:49.987Z,7.75
2019-02-17T14:58:56.014Z,7.98
2019-02-17T15:04:08.453Z,8.32
2019-02-17T15:09:07.644Z,7.54
2019-02-17T15:14:13.693Z,8.19
2019-02-17T15:19:19.731Z,7.70
2019-02-17T15:24:25.756Z,7.12
2019-02-17T15:29:31.891Z,7.62
2019-02-17T15:34:37.928Z,7.91
2019-02-17T15:39:43.941Z,7.02
2019-02-17T15:44:50.016Z,6.76
2019-02-17T15:49:56.099Z,8.39
2019-02-17T15:55:02.143Z,8.34
2019-02-17T16:00:08.188Z,7.56
2019-02-17T16:05:14.240Z,7.83
2019-02-17T16:10:20.272Z,7.12
2019-02-17T16:15:26.675Z,7.36
2019-02-17T16:20:32.694Z,7.09
2019-02-17T16:25:38.715Z,8.32
2019-02-17T16:30:44.734Z,6.99
2019-02-17T16:35:50.746Z,7.50
2019-02-17T16:40:56.757Z,7.38
2019-02-17T16:46:02.842Z,7.34
2019-02-17T16:51:08.875Z,8.27
2019-02-17T16:56:14.932Z,7.81
2019-02-17T17:01:20.963Z,6.41
2019-02-17T17:06:26.989Z,7.05
2019-02-17T17:11:33.009Z,6.82
2019-02-17T17:16:39.060Z,6.18
2019-02-17T17:21:45.107Z,6.48
2019-02-17T17:26:52.023Z,6.08
2019-02-17T17:31:58.139Z,6.44
2019-02-17T17:37:04.893Z,6.67
2019-02-17T17:42:11.076Z,6.94
2019-02-17T17:47:21.857Z,7.76
2019-02-17T17:52:18.802Z,6.25
2019-02-17T17:57:25.680Z,6.12
2019-02-17T18:02:32.126Z,6.29
2019-02-17T18:07:39.830Z,13.88
2019-02-17T18:12:45.977Z,8.47
2019-02-17T18:17:54.810Z,7.45
2019-02-17T18:22:58.034Z,6.84
2019-02-17T18:28:04.614Z,6.72
2019-02-17T18:33:12.099Z,7.21
2019-02-17T18:38:19.321Z,6.59
2019-02-17T18:43:25.501Z,6.59
2019-02-17T18:48:31.684Z,6.73
2019-02-17T18:53:37.929Z,6.56
2019-02-17T18:58:44.017Z,6.75
2019-02-17T19:03:50.214Z,7.43
2019-02-17T19:08:56.547Z,6.93
2019-02-17T19:14:03.231Z,7.48
2019-02-17T19:19:09.397Z,9.71
2019-02-17T19:24:15.454Z,5.74
2019-02-17T19:29:21.455Z,7.00
2019-02-17T19:34:27.572Z,9.30
2019-02-17T19:39:33.769Z,5.61
2019-02-17T19:44:39.819Z,7.69
2019-02-17T19:49:45.831Z,10.21
2019-02-17T19:54:52.014Z,13.10
2019-02-17T19:59:58.001Z,9.55
2019-02-17T20:05:03.976Z,7.94
2019-02-17T20:10:10.033Z,4.56
2019-02-17T20:15:16.098Z,4.59
2019-02-17T20:20:22.177Z,4.61
2019-02-17T20:25:28.215Z,6.54
2019-02-17T20:30:34.200Z,4.23
2019-02-17T20:35:40.186Z,4.25
2019-02-17T20:40:46.242Z,4.55
2019-02-17T20:45:52.299Z,5.59
2019-02-17T20:50:58.337Z,4.55
2019-02-17T20:56:06.516Z,5.07
2019-02-17T21:01:12.498Z,4.61
2019-02-17T21:06:18.608Z,4.96
2019-02-17T21:11:24.704Z,5.72
2019-02-17T21:16:31.337Z,5.97
2019-02-17T21:21:37.340Z,5.75
2019-02-17T21:26:43.446Z,8.86
2019-02-17T21:31:49.588Z,6.58
2019-02-17T21:36:55.621Z,8.88
2019-02-17T21:42:01.702Z,6.37
2019-02-17T21:47:07.775Z,6.69
2019-02-17T21:52:13.954Z,6.46
2019-02-17T21:57:20.019Z,6.53
2019-02-17T22:02:26.187Z,6.18
2019-02-17T22:07:32.206Z,6.24
2019-02-17T22:12:38.238Z,8.45
2019-02-17T22:17:44.263Z,6.09
2019-02-17T22:22:50.321Z,6.48
2019-02-17T22:27:56.414Z,5.99
2019-02-17T22:33:02.425Z,6.20
2019-02-17T22:38:08.415Z,6.53
2019-02-17T22:43:14.447Z,6.48
2019-02-17T22:48:20.468Z,6.61
2019-02-17T22:53:26.557Z,7.21
2019-02-17T22:58:32.622Z,9.94
2019-02-17T23:03:38.737Z,10.11
2019-02-17T23:08:44.760Z,7.13
2019-02-17T23:13:50.742Z,6.85
2019-02-17T23:18:56.801Z,7.74
2019-02-17T23:24:02.876Z,7.30
2019-02-17T23:29:08.900Z,7.36
2019-02-17T23:34:14.931Z,6.89
2019-02-17T23:39:20.983Z,7.07
2019-02-17T23:44:27.001Z,7.16
2019-02-17T23:49:33.042Z,10.65
2019-02-17T23:54:39.040Z,7.41
2019-02-17T23:59:45.014Z,10.88
